createdAt,value
2022-07-29T00:02:26.459Z,23.68
2022-07-29T00:04:54.124Z,23.52
2022-07-29T00:07:21.361Z,23.28
2022-07-29T00:09:51.687Z,23.40
2022-07-29T00:12:21.373Z,23.34
2022-07-29T00:14:56.336Z,23.51
2022-07-29T00:17:24.284Z,23.64
2022-07-29T00:19:51.095Z,23.69
2022-07-29T00:22:17.980Z,23.79
2022-07-29T00:24:44.661Z,23.73
2022-07-29T00:27:11.280Z,23.67
2022-07-29T00:29:37.924Z,23.70
2022-07-29T00:32:04.869Z,23.69
2022-07-29T00:34:50.549Z,23.42
2022-07-29T00:37:17.243Z,23.56
2022-07-29T00:39:44.035Z,23.64
2022-07-29T00:42:10.967Z,23.64
2022-07-29T00:44:42.691Z,23.65
2022-07-29T00:47:11.471Z,23.72
2022-07-29T00:49:40.865Z,23.77
2022-07-29T00:52:09.489Z,23.49
2022-07-29T00:54:43.797Z,23.36
2022-07-29T00:57:12.645Z,23.56
2022-07-29T00:59:39.407Z,23.61
2022-07-29T01:02:06.463Z,22.91
2022-07-29T01:04:33.658Z,22.54
2022-07-29T01:07:03.735Z,22.75
2022-07-29T01:09:45.194Z,23.00
2022-07-29T01:12:20.083Z,23.04
2022-07-29T01:14:48.807Z,22.78
2022-07-29T01:17:23.163Z,22.65
2022-07-29T01:20:04.699Z,22.65
2022-07-29T01:22:53.018Z,22.07
2022-07-29T01:25:57.047Z,22.04
2022-07-29T01:28:42.951Z,21.28
2022-07-29T01:31:13.480Z,20.84
2022-07-29T01:33:59.195Z,21.11
2022-07-29T01:36:41.397Z,21.74
2022-07-29T01:39:17.990Z,21.98
2022-07-29T01:41:56.063Z,22.13
2022-07-29T01:44:35.466Z,22.37
2022-07-29T01:47:16.729Z,22.43
2022-07-29T01:49:48.799Z,22.62
2022-07-29T01:52:32.133Z,22.79
2022-07-29T01:55:03.814Z,22.82
2022-07-29T01:57:33.319Z,22.82
2022-07-29T02:00:01.892Z,22.85
2022-07-29T02:02:31.938Z,22.93
2022-07-29T02:05:01.338Z,23.00
2022-07-29T02:07:32.733Z,23.02
2022-07-29T02:10:01.587Z,22.97
2022-07-29T02:12:30.390Z,22.95
2022-07-29T02:15:01.782Z,22.96
2022-07-29T02:17:40.975Z,23.07
2022-07-29T02:20:09.878Z,23.04
2022-07-29T02:22:39.197Z,22.89
2022-07-29T02:25:14.026Z,22.86
2022-07-29T02:27:42.603Z,22.91
2022-07-29T02:30:11.161Z,22.98
2022-07-29T02:32:41.185Z,22.83
2022-07-29T02:35:09.730Z,22.93
2022-07-29T02:37:37.977Z,23.00
2022-07-29T02:40:07.031Z,23.00
2022-07-29T02:42:37.028Z,22.95
2022-07-29T02:45:04.560Z,22.90
2022-07-29T02:47:41.468Z,22.96
2022-07-29T02:50:27.137Z,23.08
2022-07-29T02:53:14.001Z,22.99
2022-07-29T02:55:46.773Z,23.00
2022-07-29T02:58:46.150Z,23.08
2022-07-29T03:01:21.750Z,23.02
2022-07-29T03:03:50.485Z,23.00
2022-07-29T03:06:28.100Z,22.99
2022-07-29T03:09:06.714Z,22.97
2022-07-29T03:11:42.469Z,22.93
2022-07-29T03:14:18.467Z,22.93
2022-07-29T03:16:45.946Z,22.76
2022-07-29T03:19:12.996Z,22.84
2022-07-29T03:21:40.007Z,22.89
2022-07-29T03:24:12.520Z,22.88
2022-07-29T03:26:39.277Z,22.78
2022-07-29T03:29:05.940Z,22.72
2022-07-29T03:31:33.719Z,22.60
2022-07-29T03:34:00.977Z,22.55
2022-07-29T03:36:27.810Z,22.51
2022-07-29T03:38:55.702Z,22.50
2022-07-29T03:41:24.877Z,22.62
2022-07-29T03:43:53.639Z,22.67
2022-07-29T03:46:23.660Z,22.71
2022-07-29T03:48:54.107Z,22.68
2022-07-29T03:51:33.488Z,22.62
2022-07-29T03:54:07.704Z,22.55
2022-07-29T03:56:40.777Z,22.07
2022-07-29T03:59:08.576Z,22.02
2022-07-29T04:01:36.410Z,22.04
2022-07-29T04:04:03.664Z,22.19
2022-07-29T04:06:30.420Z,22.06
2022-07-29T04:08:57.117Z,22.12
2022-07-29T04:11:23.938Z,22.16
2022-07-29T04:13:50.592Z,21.94
2022-07-29T04:16:17.261Z,22.02
2022-07-29T04:18:43.959Z,22.11
2022-07-29T04:21:10.589Z,22.04
2022-07-29T04:23:47.615Z,21.97
2022-07-29T04:26:21.097Z,22.51
2022-07-29T04:28:47.868Z,22.29
2022-07-29T04:31:14.819Z,22.17
2022-07-29T04:33:41.570Z,22.14
2022-07-29T04:36:26.842Z,22.21
2022-07-29T04:38:54.949Z,22.28
2022-07-29T04:41:21.613Z,22.34
2022-07-29T04:43:48.643Z,22.33
2022-07-29T04:46:15.402Z,22.38
2022-07-29T04:48:42.275Z,22.08
2022-07-29T04:51:09.106Z,21.74
2022-07-29T04:53:35.836Z,21.86
2022-07-29T04:56:03.244Z,22.22
2022-07-29T04:58:29.871Z,22.38
2022-07-29T05:00:56.634Z,22.40
2022-07-29T05:03:23.292Z,22.40
2022-07-29T05:05:49.933Z,22.46
2022-07-29T05:08:16.593Z,22.55
2022-07-29T05:10:43.371Z,22.66
2022-07-29T05:13:10.114Z,22.74
2022-07-29T05:15:37.670Z,22.80
2022-07-29T05:18:04.927Z,22.81
2022-07-29T05:20:31.841Z,22.85
2022-07-29T05:23:00.086Z,22.90
2022-07-29T05:25:42.007Z,22.94
2022-07-29T05:28:12.620Z,22.92
2022-07-29T05:30:39.501Z,22.98
2022-07-29T05:33:06.274Z,22.98
2022-07-29T05:35:33.023Z,23.06
2022-07-29T05:37:59.663Z,23.10
2022-07-29T05:40:26.328Z,23.16
2022-07-29T05:42:53.023Z,23.14
2022-07-29T05:45:19.651Z,23.20
2022-07-29T05:47:46.620Z,23.27
2022-07-29T05:50:13.516Z,23.32
2022-07-29T05:52:40.418Z,23.35
2022-07-29T05:55:07.311Z,23.38
2022-07-29T05:57:34.133Z,23.40
2022-07-29T06:00:00.755Z,23.35
2022-07-29T06:02:27.428Z,23.44
2022-07-29T06:04:54.788Z,23.52
2022-07-29T06:07:21.923Z,23.55
2022-07-29T06:09:48.606Z,23.43
2022-07-29T06:12:15.499Z,23.48
2022-07-29T06:14:42.154Z,23.46
2022-07-29T06:17:08.932Z,23.52
2022-07-29T06:19:37.314Z,23.55
2022-07-29T06:22:04.534Z,23.68
2022-07-29T06:24:31.750Z,23.68
2022-07-29T06:26:58.434Z,23.70
2022-07-29T06:29:25.483Z,23.71
2022-07-29T06:31:52.132Z,23.78
2022-07-29T06:34:19.229Z,23.85
2022-07-29T06:36:47.619Z,23.87
2022-07-29T06:39:15.531Z,23.90
2022-07-29T06:41:42.297Z,23.93
2022-07-29T06:44:09.056Z,23.90
2022-07-29T06:46:35.866Z,23.92
2022-07-29T06:49:03.405Z,23.82
2022-07-29T06:51:30.290Z,23.64
2022-07-29T06:54:02.306Z,23.82
2022-07-29T06:56:39.124Z,23.87
2022-07-29T06:59:08.133Z,23.92
2022-07-29T07:01:35.221Z,23.87
2022-07-29T07:04:01.918Z,23.92
2022-07-29T07:06:28.726Z,24.03
2022-07-29T07:08:55.558Z,23.95
2022-07-29T07:11:22.427Z,24.04
2022-07-29T07:13:49.272Z,24.13
2022-07-29T07:16:16.155Z,24.12
2022-07-29T07:18:43.096Z,24.22
2022-07-29T07:21:09.889Z,24.23
2022-07-29T07:23:36.569Z,24.30
2022-07-29T07:26:04.155Z,24.36
2022-07-29T07:28:30.801Z,24.38
2022-07-29T07:30:57.535Z,24.24
2022-07-29T07:33:24.311Z,24.28
2022-07-29T07:35:50.949Z,24.34
2022-07-29T07:38:17.656Z,24.25
2022-07-29T07:40:44.455Z,24.34
2022-07-29T07:43:11.121Z,24.13
2022-07-29T07:45:38.559Z,24.23
2022-07-29T07:48:06.161Z,24.17
2022-07-29T07:50:33.280Z,24.14
2022-07-29T07:53:00.627Z,24.23
2022-07-29T07:55:27.661Z,24.36
2022-07-29T07:57:55.660Z,24.50
2022-07-29T08:00:23.689Z,24.66
2022-07-29T08:02:51.516Z,24.75
2022-07-29T08:05:18.963Z,24.90
2022-07-29T08:07:47.407Z,24.91
2022-07-29T08:10:37.624Z,24.91
2022-07-29T08:13:09.342Z,25.13
2022-07-29T08:15:36.413Z,24.97
2022-07-29T08:18:08.368Z,25.08
2022-07-29T08:20:36.771Z,25.25
2022-07-29T08:23:05.387Z,25.47
2022-07-29T08:25:32.110Z,25.59
2022-07-29T08:28:00.367Z,25.82
2022-07-29T08:30:27.017Z,26.22
2022-07-29T08:32:55.465Z,26.32
2022-07-29T08:35:24.227Z,26.01
2022-07-29T08:37:51.596Z,26.06
2022-07-29T08:40:18.380Z,26.57
2022-07-29T08:42:45.833Z,26.83
2022-07-29T08:45:13.091Z,26.76
2022-07-29T08:47:40.925Z,26.22
2022-07-29T08:50:12.006Z,26.48
2022-07-29T08:52:40.861Z,27.01
2022-07-29T08:55:09.454Z,27.35
2022-07-29T08:57:37.252Z,27.25
2022-07-29T09:00:08.129Z,27.49
2022-07-29T09:02:44.631Z,27.78
2022-07-29T09:05:13.764Z,27.88
2022-07-29T09:07:40.660Z,28.09
2022-07-29T09:10:07.958Z,27.92
2022-07-29T09:12:38.075Z,27.71
2022-07-29T09:15:05.294Z,27.76
2022-07-29T09:17:50.872Z,27.81
2022-07-29T09:20:21.108Z,28.21
2022-07-29T09:22:50.649Z,28.47
2022-07-29T09:25:36.868Z,28.32
2022-07-29T09:28:15.303Z,27.75
2022-07-29T09:30:55.859Z,28.01
2022-07-29T09:33:24.215Z,28.01
2022-07-29T09:36:04.068Z,28.48
2022-07-29T09:38:33.577Z,29.10
2022-07-29T09:41:06.752Z,29.35
2022-07-29T09:43:34.388Z,29.43
2022-07-29T09:46:27.207Z,29.59
2022-07-29T09:49:10.140Z,29.80
2022-07-29T09:51:38.143Z,29.84
2022-07-29T09:54:24.441Z,30.05
2022-07-29T09:56:51.603Z,30.14
2022-07-29T09:59:18.323Z,30.33
2022-07-29T10:01:44.966Z,30.19
2022-07-29T10:04:11.655Z,30.48
2022-07-29T10:07:03.594Z,30.65
2022-07-29T10:09:31.475Z,30.88
2022-07-29T10:12:14.740Z,31.11
2022-07-29T10:14:43.036Z,31.13
2022-07-29T10:17:11.275Z,31.10
2022-07-29T10:19:39.268Z,31.31
2022-07-29T10:22:09.501Z,31.52
2022-07-29T10:24:38.320Z,31.65
2022-07-29T10:27:07.118Z,31.72
2022-07-29T10:29:34.063Z,31.79
2022-07-29T10:32:53.773Z,31.79
2022-07-29T10:35:35.741Z,31.75
2022-07-29T10:38:08.060Z,31.82
2022-07-29T10:40:53.238Z,32.04
2022-07-29T10:43:29.924Z,32.11
2022-07-29T10:46:01.040Z,32.11
2022-07-29T10:48:28.088Z,32.34
2022-07-29T10:51:01.128Z,32.19
2022-07-29T10:53:48.934Z,31.97
2022-07-29T10:56:25.594Z,32.11
2022-07-29T10:59:21.737Z,32.30
2022-07-29T11:01:52.715Z,32.33
2022-07-29T11:04:45.766Z,32.08
2022-07-29T11:07:13.825Z,32.26
2022-07-29T11:09:41.955Z,32.51
2022-07-29T11:12:38.733Z,32.70
2022-07-29T11:15:09.159Z,32.65
2022-07-29T11:18:03.292Z,32.87
2022-07-29T11:20:40.095Z,33.00
2022-07-29T11:23:19.016Z,32.95
2022-07-29T11:25:50.638Z,32.93
2022-07-29T11:28:25.369Z,32.85
2022-07-29T11:30:54.399Z,32.84
2022-07-29T11:33:54.660Z,32.48
2022-07-29T11:36:28.262Z,32.22
2022-07-29T11:39:26.547Z,32.06
2022-07-29T11:42:28.308Z,31.91
2022-07-29T11:45:04.302Z,31.69
2022-07-29T11:47:47.816Z,31.62
2022-07-29T11:50:28.368Z,31.57
2022-07-29T11:52:55.658Z,31.45
2022-07-29T11:55:32.500Z,31.75
2022-07-29T11:58:04.138Z,32.14
2022-07-29T12:00:37.171Z,32.41
2022-07-29T12:03:06.373Z,32.73
2022-07-29T12:05:51.858Z,33.13
2022-07-29T12:08:20.877Z,33.33
2022-07-29T12:10:49.486Z,33.17
2022-07-29T12:13:18.204Z,33.24
2022-07-29T12:15:54.588Z,33.37
2022-07-29T12:18:24.369Z,33.42
2022-07-29T12:20:58.527Z,33.75
2022-07-29T12:23:25.190Z,33.85
2022-07-29T12:25:56.622Z,33.93
2022-07-29T12:28:26.604Z,34.09
2022-07-29T12:30:53.881Z,34.23
2022-07-29T12:33:27.534Z,34.43
2022-07-29T12:36:09.473Z,34.87
2022-07-29T12:38:41.425Z,34.80
2022-07-29T12:41:08.205Z,35.04
2022-07-29T12:43:35.000Z,35.20
2022-07-29T12:46:16.115Z,35.38
2022-07-29T12:48:44.536Z,35.58
2022-07-29T12:51:15.417Z,35.37
2022-07-29T12:53:42.255Z,35.27
2022-07-29T12:59:21.455Z,35.76
2022-07-29T13:01:50.852Z,36.09
2022-07-29T13:04:29.226Z,35.82
2022-07-29T13:07:10.389Z,34.58
2022-07-29T13:09:43.035Z,34.27
2022-07-29T13:12:14.314Z,34.78
2022-07-29T13:14:47.181Z,34.55
2022-07-29T13:17:20.282Z,35.08
2022-07-29T13:19:52.379Z,35.41
2022-07-29T13:22:24.470Z,35.48
2022-07-29T13:24:56.523Z,35.58
2022-07-29T13:27:28.340Z,35.86
2022-07-29T13:30:00.520Z,36.21
2022-07-29T13:32:28.563Z,36.34
2022-07-29T13:35:01.176Z,36.39
2022-07-29T13:37:33.959Z,36.50
2022-07-29T13:40:01.216Z,36.48
2022-07-29T13:42:27.907Z,36.76
2022-07-29T13:44:54.804Z,36.91
2022-07-29T13:47:22.184Z,36.58
2022-07-29T13:49:49.463Z,36.68
2022-07-29T13:52:16.766Z,36.44
2022-07-29T13:54:44.255Z,36.69
2022-07-29T13:57:12.069Z,36.88
2022-07-29T13:59:40.245Z,36.85
2022-07-29T14:02:07.228Z,36.81
2022-07-29T14:04:34.584Z,36.91
2022-07-29T14:07:03.629Z,36.87
2022-07-29T14:09:41.102Z,37.27
2022-07-29T14:12:08.746Z,37.30
2022-07-29T14:14:36.617Z,37.41
2022-07-29T14:17:04.373Z,37.43
2022-07-29T14:19:33.078Z,37.41
2022-07-29T14:22:00.169Z,37.33
2022-07-29T14:24:27.198Z,37.59
2022-07-29T14:26:53.879Z,37.72
2022-07-29T14:29:20.637Z,37.69
2022-07-29T14:31:47.331Z,37.28
2022-07-29T14:34:14.160Z,36.92
2022-07-29T14:36:40.805Z,36.94
2022-07-29T14:39:07.875Z,37.17
2022-07-29T14:41:34.798Z,37.21
2022-07-29T14:44:04.243Z,37.04
2022-07-29T14:46:31.018Z,37.15
2022-07-29T14:48:57.818Z,37.27
2022-07-29T14:51:24.531Z,37.27
2022-07-29T14:53:59.368Z,37.16
2022-07-29T14:56:46.501Z,37.05
2022-07-29T14:59:12.742Z,37.11
2022-07-29T15:01:39.513Z,37.03
2022-07-29T15:04:06.232Z,37.08
2022-07-29T15:06:32.873Z,36.92
2022-07-29T15:08:59.532Z,37.03
2022-07-29T15:11:26.535Z,37.15
2022-07-29T15:13:53.189Z,37.32
2022-07-29T15:16:19.893Z,37.31
2022-07-29T15:18:46.629Z,37.33
2022-07-29T15:21:13.239Z,37.23
2022-07-29T15:23:40.078Z,37.25
2022-07-29T15:26:06.756Z,37.26
2022-07-29T15:28:33.484Z,37.17
2022-07-29T15:31:00.129Z,37.08
2022-07-29T15:33:27.395Z,36.72
2022-07-29T15:35:54.109Z,36.11
2022-07-29T15:38:20.787Z,36.13
2022-07-29T15:40:55.762Z,36.18
2022-07-29T15:43:22.742Z,36.18
2022-07-29T15:46:08.083Z,36.16
2022-07-29T15:48:39.136Z,35.96
2022-07-29T15:51:05.889Z,35.92
2022-07-29T15:53:32.547Z,35.81
2022-07-29T15:56:02.212Z,35.64
2022-07-29T15:58:29.156Z,35.61
2022-07-29T16:00:56.226Z,35.67
2022-07-29T16:03:23.029Z,35.59
2022-07-29T16:05:49.681Z,35.70
2022-07-29T16:08:16.433Z,35.71
2022-07-29T16:10:43.198Z,35.73
2022-07-29T16:13:09.864Z,35.69
2022-07-29T16:15:36.510Z,35.40
2022-07-29T16:18:03.325Z,35.00
2022-07-29T16:20:30.270Z,34.77
2022-07-29T16:22:57.044Z,34.64
2022-07-29T16:25:38.366Z,34.69
2022-07-29T16:28:10.752Z,34.72
2022-07-29T16:30:37.430Z,34.72
2022-07-29T16:33:08.259Z,34.64
2022-07-29T16:35:39.813Z,34.43
2022-07-29T16:38:06.954Z,34.69
2022-07-29T16:40:33.652Z,34.60
2022-07-29T16:43:00.281Z,34.45
2022-07-29T16:45:27.061Z,34.52
2022-07-29T16:48:04.827Z,34.46
2022-07-29T16:50:33.165Z,34.43
2022-07-29T16:52:59.988Z,34.44
2022-07-29T16:55:26.775Z,34.50
2022-07-29T16:57:53.435Z,34.13
2022-07-29T17:00:21.921Z,33.90
2022-07-29T17:02:49.055Z,33.93
2022-07-29T17:05:16.116Z,33.77
2022-07-29T17:07:42.901Z,33.81
2022-07-29T17:10:10.445Z,33.74
2022-07-29T17:12:40.794Z,33.42
2022-07-29T17:15:10.907Z,33.18
2022-07-29T17:17:39.404Z,33.19
2022-07-29T17:20:21.654Z,33.10
2022-07-29T17:22:48.574Z,33.17
2022-07-29T17:25:21.140Z,33.16
2022-07-29T17:27:49.742Z,33.06
2022-07-29T17:30:16.891Z,32.91
2022-07-29T17:32:43.564Z,32.89
2022-07-29T17:35:29.003Z,32.84
2022-07-29T17:37:56.269Z,32.66
2022-07-29T17:40:23.178Z,32.49
2022-07-29T17:42:50.355Z,32.66
2022-07-29T17:45:17.103Z,32.68
2022-07-29T17:47:45.062Z,32.46
2022-07-29T17:50:11.757Z,32.03
2022-07-29T17:52:40.766Z,32.25
2022-07-29T17:55:10.280Z,32.29
2022-07-29T17:57:37.147Z,32.27
2022-07-29T18:00:08.347Z,32.01
2022-07-29T18:02:37.550Z,31.84
2022-07-29T18:05:05.218Z,31.65
2022-07-29T18:07:31.952Z,31.49
2022-07-29T18:10:00.575Z,31.44
2022-07-29T18:12:28.351Z,31.38
2022-07-29T18:14:55.051Z,31.04
2022-07-29T18:17:21.720Z,30.93
2022-07-29T18:20:01.221Z,30.40
2022-07-29T18:22:27.867Z,30.30
2022-07-29T18:24:54.843Z,30.18
2022-07-29T18:27:21.467Z,29.98
2022-07-29T18:29:51.281Z,30.03
2022-07-29T18:32:17.951Z,30.04
2022-07-29T18:34:55.289Z,29.93
2022-07-29T18:38:01.383Z,29.56
2022-07-29T18:40:10.726Z,29.54
2022-07-29T18:42:40.893Z,29.57
2022-07-29T18:45:12.139Z,29.32
2022-07-29T18:47:47.535Z,28.32
2022-07-29T18:50:14.755Z,28.18
2022-07-29T18:52:41.844Z,28.19
2022-07-29T18:55:08.821Z,28.10
2022-07-29T18:57:55.456Z,27.33
2022-07-29T19:00:22.812Z,25.31
2022-07-29T19:02:49.973Z,24.27
2022-07-29T19:05:16.726Z,23.16
2022-07-29T19:07:43.403Z,22.22
2022-07-29T19:10:10.336Z,21.74
2022-07-29T19:12:37.069Z,21.54
2022-07-29T19:15:03.984Z,21.25
2022-07-29T19:17:39.331Z,20.81
2022-07-29T19:20:07.450Z,20.61
2022-07-29T19:22:34.486Z,20.54
2022-07-29T19:25:01.349Z,20.49
2022-07-29T19:27:28.107Z,20.39
2022-07-29T19:29:59.060Z,20.23
2022-07-29T19:32:26.311Z,20.36
2022-07-29T19:35:11.558Z,20.31
2022-07-29T19:37:38.256Z,20.31
2022-07-29T19:40:06.250Z,19.82
2022-07-29T19:42:33.227Z,19.69
2022-07-29T19:45:00.079Z,19.71
2022-07-29T19:47:26.864Z,19.41
2022-07-29T19:49:53.479Z,19.34
2022-07-29T19:52:20.142Z,19.52
2022-07-29T19:54:46.819Z,19.51
2022-07-29T19:57:13.610Z,19.34
2022-07-29T19:59:41.220Z,19.35
2022-07-29T20:02:10.959Z,19.21
2022-07-29T20:04:38.591Z,19.33
2022-07-29T20:07:06.261Z,19.21
2022-07-29T20:09:33.006Z,19.16
2022-07-29T20:11:59.658Z,19.28
2022-07-29T20:14:26.396Z,19.29
2022-07-29T20:16:54.536Z,19.26
2022-07-29T20:19:21.547Z,19.11
2022-07-29T20:21:48.305Z,19.24
2022-07-29T20:24:15.046Z,19.44
2022-07-29T20:26:41.764Z,19.69
2022-07-29T20:29:08.468Z,19.67
2022-07-29T20:31:35.147Z,19.66
2022-07-29T20:34:02.089Z,20.05
2022-07-29T20:36:28.785Z,20.34
2022-07-29T20:38:56.278Z,20.53
2022-07-29T20:41:23.359Z,20.64
2022-07-29T20:43:50.181Z,20.85
2022-07-29T20:46:18.739Z,20.90
2022-07-29T20:48:47.005Z,21.11
2022-07-29T20:51:14.618Z,21.34
2022-07-29T20:53:41.819Z,21.57
2022-07-29T20:56:08.659Z,21.63
2022-07-29T20:58:36.570Z,21.81
2022-07-29T21:01:05.032Z,21.92
2022-07-29T21:03:32.637Z,21.95
2022-07-29T21:06:00.042Z,21.93
2022-07-29T21:08:26.913Z,21.93
2022-07-29T21:10:54.190Z,22.05
2022-07-29T21:13:22.455Z,22.13
2022-07-29T21:15:50.461Z,22.01
2022-07-29T21:18:36.928Z,22.11
2022-07-29T21:21:05.030Z,22.18
2022-07-29T21:23:31.936Z,21.94
2022-07-29T21:25:59.898Z,21.64
2022-07-29T21:28:26.742Z,21.58
2022-07-29T21:30:55.433Z,21.39
2022-07-29T21:33:22.328Z,21.30
2022-07-29T21:36:20.600Z,21.16
2022-07-29T21:38:37.052Z,20.30
2022-07-29T21:41:04.918Z,20.60
2022-07-29T21:43:31.705Z,21.03
2022-07-29T21:45:59.819Z,21.27
2022-07-29T21:48:28.075Z,21.11
2022-07-29T21:50:54.804Z,20.87
2022-07-29T21:53:23.001Z,21.33
2022-07-29T21:55:56.936Z,20.78
2022-07-29T21:58:24.820Z,20.39
2022-07-29T22:00:51.786Z,20.69
2022-07-29T22:03:18.469Z,20.66
2022-07-29T22:05:45.134Z,19.96
2022-07-29T22:08:11.819Z,19.90
2022-07-29T22:10:38.584Z,19.66
2022-07-29T22:13:05.289Z,19.62
2022-07-29T22:15:32.392Z,19.43
2022-07-29T22:17:59.498Z,19.38
2022-07-29T22:20:26.626Z,19.77
2022-07-29T22:22:53.920Z,20.25
2022-07-29T22:25:21.303Z,20.58
2022-07-29T22:27:48.109Z,20.74
2022-07-29T22:30:15.465Z,20.89
2022-07-29T22:32:42.262Z,21.03
2022-07-29T22:35:09.280Z,21.04
2022-07-29T22:37:36.228Z,21.05
2022-07-29T22:40:03.178Z,21.06
2022-07-29T22:42:30.459Z,21.06
2022-07-29T22:44:57.117Z,21.13
2022-07-29T22:47:45.814Z,21.22
2022-07-29T22:50:10.528Z,21.36
2022-07-29T22:52:37.247Z,21.45
2022-07-29T22:55:05.327Z,21.47
2022-07-29T22:57:31.975Z,21.51
2022-07-29T23:00:01.658Z,21.32
2022-07-29T23:02:28.950Z,21.13
2022-07-29T23:04:55.602Z,20.43
2022-07-29T23:07:22.378Z,20.24
2022-07-29T23:09:49.038Z,20.38
2022-07-29T23:12:15.691Z,20.45
2022-07-29T23:14:42.351Z,20.47
2022-07-29T23:17:09.043Z,20.37
2022-07-29T23:19:36.402Z,20.19
2022-07-29T23:22:03.047Z,19.99
2022-07-29T23:24:29.671Z,19.70
2022-07-29T23:26:56.390Z,20.32
2022-07-29T23:29:23.027Z,20.52
2022-07-29T23:31:49.672Z,20.75
2022-07-29T23:34:16.383Z,20.80
2022-07-29T23:36:43.061Z,20.98
2022-07-29T23:39:13.498Z,21.06
2022-07-29T23:41:40.764Z,21.14
2022-07-29T23:44:07.590Z,20.93
2022-07-29T23:46:34.363Z,21.15
2022-07-29T23:49:01.154Z,21.20
2022-07-29T23:51:29.316Z,21.21
2022-07-29T23:53:56.531Z,21.00
2022-07-29T23:56:23.895Z,21.15
2022-07-29T23:58:50.577Z,21.25
